Time;durP1;ratioP1;P1;durP2;ratioP2;P2;SDS_P1;SDS_P2;PMS_P1;PMS_P2;Temp;Humidity;BMP_temperature;BMP_pressure;BME280_temperature;BME280_humidity;BME280_pressure;Samples;Min_cycle;Max_cycle;Signal;HPM_P1;HPM_P2
2022/08/03 00:02:13;;;;;;;4.68;3.22;;;20.50;1.00;;;;;;4960084;28;20230;-65
2022/08/03 00:04:42;;;;;;;4.32;2.58;;;20.20;1.00;;;;;;4999851;28;20229;-65
2022/08/03 00:07:08;;;;;;;5.28;2.72;;;19.90;1.00;;;;;;4981919;28;20203;-64
2022/08/03 00:09:35;;;;;;;3.05;2.70;;;20.10;1.00;;;;;;5004585;28;20760;-65
2022/08/03 00:12:02;;;;;;;4.40;2.67;;;20.10;1.00;;;;;;4980355;28;20630;-65
2022/08/03 00:14:29;;;;;;;3.45;2.72;;;20.10;1.00;;;;;;5002235;28;20206;-65
2022/08/03 00:16:56;;;;;;;3.03;2.83;;;20.10;1.00;;;;;;4963292;28;20664;-65
2022/08/03 00:19:23;;;;;;;5.13;3.28;;;20.10;1.00;;;;;;4990073;28;20199;-64
2022/08/03 00:21:51;;;;;;;2.58;2.38;;;20.10;1.00;;;;;;4986351;28;22789;-65
2022/08/03 00:24:18;;;;;;;4.85;2.75;;;20.10;1.00;;;;;;4995445;28;20237;-65
2022/08/03 00:26:45;;;;;;;2.65;2.45;;;20.20;1.00;;;;;;4982817;28;20226;-65
2022/08/03 00:29:12;;;;;;;3.40;2.72;;;20.10;1.00;;;;;;5011316;28;20209;-64
2022/08/03 00:31:39;;;;;;;4.10;2.65;;;20.10;1.00;;;;;;4964570;28;21600;-65
2022/08/03 00:34:06;;;;;;;3.10;2.65;;;19.80;1.00;;;;;;4996393;28;20272;-65
2022/08/03 00:36:33;;;;;;;3.75;2.55;;;17.40;1.00;;;;;;4988981;28;20455;-65
2022/08/03 00:39:01;;;;;;;3.22;2.65;;;20.00;1.00;;;;;;5002023;28;20675;-65
2022/08/03 00:41:28;;;;;;;2.70;2.50;;;20.00;1.00;;;;;;4993399;28;20208;-65
2022/08/03 00:43:54;;;;;;;5.40;2.40;;;20.00;1.00;;;;;;4989795;28;20458;-65
2022/08/03 00:46:21;;;;;;;3.88;2.42;;;19.90;1.00;;;;;;5002658;28;20198;-65
2022/08/03 00:48:48;;;;;;;3.08;2.78;;;20.00;1.00;;;;;;4972547;28;20215;-65
2022/08/03 00:51:15;;;;;;;5.25;2.88;;;19.80;1.00;;;;;;5003242;28;20276;-63
2022/08/03 00:53:42;;;;;;;5.43;2.92;;;19.70;1.00;;;;;;4990442;28;20782;-63
2022/08/03 00:56:13;;;;;;;3.05;2.63;;;19.40;1.00;;;;;;4989966;28;20213;-63
2022/08/03 00:58:40;;;;;;;5.82;3.08;;;19.60;1.00;;;;;;4989341;28;20202;-64
2022/08/03 01:01:07;;;;;;;3.38;3.08;;;19.60;1.00;;;;;;5007753;28;20201;-63
2022/08/03 01:03:34;;;;;;;5.95;3.60;;;19.40;1.00;;;;;;4961963;28;20527;-64
2022/08/03 01:06:10;;;;;;;5.75;3.30;;;19.50;1.00;;;;;;5006749;28;20745;-63
2022/08/03 01:08:44;;;;;;;3.72;3.30;;;19.50;1.00;;;;;;4990196;28;20224;-66
2022/08/03 01:11:19;;;;;;;7.88;3.08;;;19.40;1.00;;;;;;5000928;28;20206;-64
2022/08/03 01:13:54;;;;;;;3.38;3.08;;;18.70;1.00;;;;;;4979580;28;20351;-65
2022/08/03 01:16:28;;;;;;;6.38;3.25;;;19.30;1.00;;;;;;5001038;28;20332;-64
2022/08/03 01:19:02;;;;;;;6.00;3.10;;;19.30;1.00;;;;;;5003962;28;20195;-64
2022/08/03 01:21:33;;;;;;;3.38;3.08;;;19.50;9.50;;;;;;4977666;28;20229;-64
2022/08/03 01:24:13;;;;;;;3.75;3.38;;;19.30;6.80;;;;;;4989224;28;20228;-64
2022/08/03 01:27:02;;;;;;;5.30;3.40;;;19.40;8.40;;;;;;4987276;28;20324;-64
2022/08/03 01:29:57;;;;;;;3.67;3.38;;;19.30;7.70;;;;;;4992646;28;20246;-64
2022/08/03 01:32:28;;;;;;;5.32;3.55;;;19.40;6.90;;;;;;5007829;28;20671;-64
2022/08/03 01:35:02;;;;;;;4.15;3.65;;;19.40;5.60;;;;;;4985122;28;20246;-63
2022/08/03 01:37:35;;;;;;;3.83;3.40;;;19.50;11.70;;;;;;5006947;28;20208;-64
2022/08/03 01:40:03;;;;;;;4.82;3.40;;;19.30;9.80;;;;;;4973907;28;20201;-64
2022/08/03 01:42:33;;;;;;;5.57;4.05;;;19.20;12.10;;;;;;4997787;28;20721;-65
2022/08/03 01:45:03;;;;;;;4.30;3.90;;;19.10;15.40;;;;;;4987575;28;20590;-64
2022/08/03 01:47:30;;;;;;;4.47;4.07;;;19.10;18.30;;;;;;5005670;28;20661;-64
2022/08/03 01:49:58;;;;;;;5.35;3.90;;;;;;;;;;4979349;28;20206;-64
2022/08/03 01:52:25;;;;;;;8.50;3.90;;;19.10;30.00;;;;;;5004300;28;20198;-64
2022/08/03 01:54:53;;;;;;;7.68;3.78;;;19.30;35.10;;;;;;5001275;28;20201;-64
2022/08/03 01:57:22;;;;;;;4.15;3.72;;;19.20;36.30;;;;;;4986901;28;20212;-65
2022/08/03 01:59:52;;;;;;;4.93;4.43;;;19.10;36.10;;;;;;4988412;28;20213;-64
2022/08/03 02:02:21;;;;;;;7.22;4.47;;;19.50;35.70;;;;;;4990326;28;20210;-64
2022/08/03 02:04:49;;;;;;;8.32;4.40;;;19.10;35.70;;;;;;5001533;28;20242;-63
2022/08/03 02:07:17;;;;;;;5.57;3.90;;;19.30;35.70;;;;;;4979298;28;20214;-64
2022/08/03 02:09:46;;;;;;;7.30;4.28;;;19.00;33.20;;;;;;4990374;28;20203;-65
2022/08/03 02:12:14;;;;;;;5.90;3.97;;;19.00;33.50;;;;;;5011023;28;20644;-63
2022/08/03 02:14:44;;;;;;;4.30;3.72;;;18.90;32.60;;;;;;4989502;28;20230;-64
2022/08/03 02:17:12;;;;;;;4.93;4.22;;;18.90;40.30;;;;;;5002639;28;20202;-64
2022/08/03 02:19:42;;;;;;;4.53;3.75;;;18.80;41.20;;;;;;4986503;28;20213;-64
2022/08/03 02:22:12;;;;;;;4.80;4.25;;;18.80;40.00;;;;;;4982831;28;20221;-64
2022/08/03 02:24:39;;;;;;;4.63;3.80;;;18.80;44.80;;;;;;4983992;28;20246;-64
2022/08/03 02:27:16;;;;;;;5.90;4.05;;;18.80;46.10;;;;;;5004091;28;20206;-64
2022/08/03 02:29:45;;;;;;;5.88;4.25;;;18.80;52.30;;;;;;4985136;28;20209;-64
2022/08/03 02:32:17;;;;;;;5.57;4.30;;;18.70;51.00;;;;;;4991015;28;20214;-63
2022/08/03 02:34:48;;;;;;;6.28;4.40;;;18.70;51.90;;;;;;4982927;28;20202;-65
2022/08/03 02:37:18;;;;;;;5.63;4.53;;;18.70;50.60;;;;;;4976579;28;20209;-64
2022/08/03 02:39:47;;;;;;;4.80;4.30;;;18.70;51.00;;;;;;4984494;28;20202;-64
2022/08/03 02:42:16;;;;;;;7.15;4.50;;;18.60;54.00;;;;;;5002764;28;20668;-65
2022/08/03 02:44:48;;;;;;;6.75;4.75;;;18.70;55.70;;;;;;4996337;28;20233;-64
2022/08/03 02:47:19;;;;;;;7.40;4.00;;;18.70;55.70;;;;;;4973221;28;20235;-63
2022/08/03 02:49:49;;;;;;;4.47;4.07;;;18.60;56.00;;;;;;5001524;28;20295;-64
2022/08/03 02:52:17;;;;;;;4.60;3.75;;;;;;;;;;4978756;28;20252;-63
2022/08/03 02:54:46;;;;;;;4.57;4.18;;;18.60;54.00;;;;;;4988181;28;20624;-64
2022/08/03 02:57:14;;;;;;;7.45;4.40;;;18.60;52.30;;;;;;4984494;28;20210;-64
2022/08/03 02:59:43;;;;;;;6.53;4.00;;;18.60;53.80;;;;;;4996964;28;20208;-64
2022/08/03 03:02:12;;;;;;;4.85;4.00;;;18.60;51.10;;;;;;4986892;28;20221;-64
2022/08/03 03:04:40;;;;;;;4.20;3.83;;;18.50;49.50;;;;;;4996820;28;20229;-63
2022/08/03 03:07:08;;;;;;;4.63;3.88;;;18.50;52.50;;;;;;4994465;28;20205;-63
2022/08/03 03:09:35;;;;;;;5.05;4.30;;;18.40;52.50;;;;;;4973727;28;20802;-64
2022/08/03 03:12:04;;;;;;;3.90;3.50;;;18.40;50.90;;;;;;4982387;28;20213;-64
2022/08/03 03:14:32;;;;;;;6.82;4.32;;;18.70;55.50;;;;;;4996145;28;20218;-64
2022/08/03 03:16:59;;;;;;;6.03;3.88;;;18.50;53.50;;;;;;4971396;28;21087;-64
2022/08/03 03:19:26;;;;;;;5.20;4.32;;;18.40;54.70;;;;;;4991874;28;20202;-64
2022/08/03 03:21:55;;;;;;;5.15;4.22;;;18.40;55.20;;;;;;4983897;28;20213;-64
2022/08/03 03:24:24;;;;;;;4.22;3.83;;;18.50;56.20;;;;;;4982932;28;20229;-64
2022/08/03 03:26:51;;;;;;;6.20;4.00;;;18.40;53.40;;;;;;4990245;28;20199;-64
2022/08/03 03:29:18;;;;;;;7.75;4.35;;;18.40;52.40;;;;;;4991193;28;20212;-65
2022/08/03 03:31:46;;;;;;;8.23;4.32;;;18.40;53.00;;;;;;4990007;28;20202;-64
2022/08/03 03:34:13;;;;;;;8.73;4.47;;;18.40;51.70;;;;;;4986472;28;20198;-64
2022/08/03 03:36:40;;;;;;;5.10;3.85;;;18.40;52.10;;;;;;5009195;28;20212;-64
2022/08/03 03:39:06;;;;;;;6.55;4.18;;;18.40;49.00;;;;;;4976120;28;20218;-63
2022/08/03 03:41:35;;;;;;;4.18;3.78;;;18.30;42.60;;;;;;5003238;28;20206;-63
2022/08/03 03:44:02;;;;;;;5.35;3.97;;;18.30;45.50;;;;;;4983546;28;20211;-63
2022/08/03 03:46:30;;;;;;;11.38;3.97;;;18.20;50.10;;;;;;4995717;28;20242;-63
2022/08/03 03:48:56;;;;;;;7.10;4.25;;;18.20;51.80;;;;;;4982591;28;20206;-63
2022/08/03 03:51:23;;;;;;;9.00;4.20;;;18.20;50.50;;;;;;5002384;28;20224;-63
2022/08/03 03:53:57;;;;;;;5.13;3.50;;;18.20;50.00;;;;;;4990288;28;20225;-64
2022/08/03 03:56:25;;;;;;;9.85;4.10;;;18.20;48.90;;;;;;4982907;28;20869;-63
2022/08/03 03:58:53;;;;;;;6.78;4.00;;;18.20;49.60;;;;;;4971771;28;20703;-64
2022/08/03 04:01:20;;;;;;;4.88;3.70;;;18.20;51.10;;;;;;4986674;28;20205;-68
2022/08/03 04:03:47;;;;;;;4.80;3.70;;;18.30;47.10;;;;;;4981976;28;20209;-64
2022/08/03 04:11:50;;;;;;;5.68;3.83;;;18.30;48.40;;;;;;4983065;28;20325;-64
2022/08/03 04:14:20;;;;;;;4.90;4.00;;;18.30;48.10;;;;;;5000068;28;20205;-64
2022/08/03 04:16:51;;;;;;;5.07;4.05;;;18.40;49.10;;;;;;5005406;28;20254;-64
2022/08/03 04:19:24;;;;;;;7.63;4.82;;;18.30;44.80;;;;;;4995340;28;20229;-64
2022/08/03 04:21:54;;;;;;;5.18;4.20;;;18.40;43.00;;;;;;4980220;28;20579;-64
2022/08/03 04:24:23;;;;;;;7.50;4.38;;;18.30;39.60;;;;;;5012053;28;20234;-64
2022/08/03 04:26:51;;;;;;;8.23;4.40;;;18.30;34.80;;;;;;4982597;28;20429;-64
2022/08/03 04:29:20;;;;;;;6.65;4.07;;;18.30;29.30;;;;;;4994729;28;20226;-64
2022/08/03 04:31:51;;;;;;;7.00;3.78;;;18.30;27.90;;;;;;5001353;28;20365;-64
2022/08/03 04:34:18;;;;;;;4.72;4.20;;;18.40;25.90;;;;;;4993311;28;20202;-64
2022/08/03 04:36:49;;;;;;;5.55;4.40;;;18.40;20.00;;;;;;4982472;28;20233;-64
2022/08/03 04:39:24;;;;;;;7.88;5.25;;;18.40;12.20;;;;;;5004129;28;20201;-64
2022/08/03 04:41:54;;;;;;;5.20;4.50;;;18.50;11.60;;;;;;4961491;28;20206;-64
2022/08/03 04:44:24;;;;;;;5.20;4.07;;;17.50;17.90;;;;;;5006458;28;20684;-64
2022/08/03 04:46:52;;;;;;;4.07;3.70;;;18.50;18.60;;;;;;4970381;28;20222;-63
2022/08/03 04:49:21;;;;;;;6.13;4.03;;;18.60;18.70;;;;;;4987611;28;20202;-63
2022/08/03 04:51:48;;;;;;;4.50;4.10;;;18.60;16.90;;;;;;4991306;28;20207;-63
2022/08/03 04:54:16;;;;;;;10.60;4.60;;;18.60;16.40;;;;;;5008184;28;20202;-63
2022/08/03 04:56:43;;;;;;;14.25;4.63;;;18.60;10.70;;;;;;4972486;28;20217;-63
2022/08/03 04:59:10;;;;;;;5.25;4.35;;;18.60;5.30;;;;;;5002257;28;20675;-64
2022/08/03 05:01:40;;;;;;;4.80;4.28;;;18.70;1.00;;;;;;4991062;28;20202;-64
2022/08/03 05:04:07;;;;;;;6.55;3.92;;;18.70;1.00;;;;;;4980871;28;20233;-64
2022/08/03 05:06:34;;;;;;;5.57;4.80;;;18.70;1.00;;;;;;4989657;28;20229;-63
2022/08/03 05:09:01;;;;;;;5.15;4.65;;;18.60;1.00;;;;;;4997986;28;20198;-63
2022/08/03 05:11:28;;;;;;;7.75;4.57;;;18.80;1.00;;;;;;4961466;28;20214;-63
2022/08/03 05:13:55;;;;;;;7.05;4.57;;;18.90;1.00;;;;;;4997526;28;20846;-64
2022/08/03 05:16:24;;;;;;;7.28;5.28;;;;;;;;;;4970623;28;20238;-64
2022/08/03 05:18:52;;;;;;;5.93;4.93;;;19.00;1.00;;;;;;4983394;28;20198;-64
2022/08/03 05:21:19;;;;;;;5.30;4.78;;;19.00;6.40;;;;;;4995600;28;20209;-64
2022/08/03 05:23:46;;;;;;;7.03;4.97;;;19.10;24.10;;;;;;4978653;28;20210;-64
2022/08/03 05:26:13;;;;;;;6.95;5.32;;;19.10;99.90;;;;;;5001762;28;20634;-64
2022/08/03 05:28:40;;;;;;;5.13;4.63;;;;;;;;;;4979131;28;20232;-64
2022/08/03 05:31:07;;;;;;;6.28;5.10;;;19.20;99.90;;;;;;4988286;28;20238;-64
2022/08/03 05:33:34;;;;;;;5.63;4.97;;;19.30;99.90;;;;;;4989181;28;20230;-62
2022/08/03 05:36:02;;;;;;;5.38;4.88;;;19.40;99.90;;;;;;4983279;28;20774;-65
2022/08/03 05:38:30;;;;;;;9.43;5.20;;;16.50;99.90;;;;;;4992877;28;20297;-63
2022/08/03 05:40:58;;;;;;;5.43;4.93;;;19.20;99.90;;;;;;4983989;28;20728;-64
2022/08/03 05:43:24;;;;;;;7.85;5.47;;;19.50;99.90;;;;;;4973541;28;20211;-64
2022/08/03 05:45:51;;;;;;;5.85;5.05;;;20.60;99.90;;;;;;4980940;28;20236;-65
2022/08/03 05:48:18;;;;;;;6.32;5.20;;;19.40;99.90;;;;;;4997055;28;20225;-63
2022/08/03 05:50:45;;;;;;;8.73;5.95;;;19.80;99.90;;;;;;4984413;28;20218;-64
2022/08/03 05:53:13;;;;;;;6.00;5.43;;;19.70;99.90;;;;;;4982729;28;20222;-64
2022/08/03 05:55:40;;;;;;;7.05;5.38;;;19.70;99.90;;;;;;5000202;28;20786;-64
2022/08/03 05:58:07;;;;;;;6.90;5.43;;;19.70;99.90;;;;;;4980047;28;21399;-64
2022/08/03 06:00:34;;;;;;;9.95;5.68;;;19.80;99.90;;;;;;4987686;28;20210;-64
2022/08/03 06:03:01;;;;;;;9.43;5.90;;;19.80;99.90;;;;;;4992241;28;20283;-64
2022/08/03 06:05:28;;;;;;;8.90;5.47;;;19.80;99.90;;;;;;5003539;28;20664;-64
2022/08/03 06:07:54;;;;;;;7.38;5.15;;;20.20;99.90;;;;;;4974818;28;20199;-64
2022/08/03 06:10:23;;;;;;;7.78;5.50;;;19.90;99.90;;;;;;4995966;28;20229;-65
2022/08/03 06:12:50;;;;;;;6.45;5.85;;;20.00;99.90;;;;;;4984542;28;20203;-64
2022/08/03 06:15:17;;;;;;;7.90;5.50;;;20.10;99.90;;;;;;4976912;28;20206;-64
2022/08/03 06:17:47;;;;;;;6.60;5.90;;;20.40;99.90;;;;;;4992537;28;20198;-63
2022/08/03 06:20:16;;;;;;;6.30;5.28;;;20.20;99.90;;;;;;4997803;28;20203;-64
2022/08/03 06:22:43;;;;;;;6.40;4.97;;;20.00;99.90;;;;;;4985471;28;20213;-63
2022/08/03 06:25:10;;;;;;;7.13;5.22;;;20.30;99.90;;;;;;4988034;28;20226;-65
2022/08/03 06:27:39;;;;;;;8.63;5.22;;;20.30;99.90;;;;;;4988140;28;20226;-65
2022/08/03 06:30:09;;;;;;;8.95;4.93;;;21.20;99.90;;;;;;4978646;28;20697;-66
2022/08/03 06:32:36;;;;;;;7.03;4.93;;;20.40;99.90;;;;;;4991993;28;20729;-67
2022/08/03 06:37:04;;;;;;;8.38;4.75;;;20.50;99.90;;;;;;5116094;27;21382;-64
2022/08/03 06:39:32;;;;;;;5.95;3.88;;;20.70;99.90;;;;;;5092868;27;20199;-64
2022/08/03 06:41:58;;;;;;;6.43;3.92;;;20.60;99.90;;;;;;5088029;27;20259;-64
2022/08/03 06:44:25;;;;;;;6.93;3.72;;;20.70;99.90;;;;;;5101057;27;20209;-65
2022/08/03 06:46:52;;;;;;;12.38;3.65;;;20.70;99.90;;;;;;5074254;27;20214;-65
2022/08/03 06:49:19;;;;;;;10.57;3.20;;;20.90;99.90;;;;;;5082961;27;20588;-64
2022/08/03 06:51:46;;;;;;;8.98;3.10;;;;;;;;;;5074825;27;20229;-63
2022/08/03 06:54:14;;;;;;;8.07;3.60;;;20.90;99.90;;;;;;5093862;27;20202;-63
2022/08/03 06:56:41;;;;;;;8.70;3.22;;;20.90;99.90;;;;;;5091652;27;20234;-65
2022/08/03 06:59:07;;;;;;;5.40;2.88;;;21.20;99.90;;;;;;5071411;27;20219;-64
2022/08/03 07:01:34;;;;;;;6.00;2.80;;;;;;;;;;5076395;27;20195;-66
2022/08/03 07:04:01;;;;;;;5.35;3.13;;;21.00;99.90;;;;;;5103133;27;20639;-63
2022/08/03 07:06:28;;;;;;;7.45;3.40;;;18.00;99.90;;;;;;5073292;27;20237;-63
2022/08/03 07:08:55;;;;;;;6.20;3.15;;;21.10;99.90;;;;;;5094220;27;20199;-64
2022/08/03 07:11:23;;;;;;;12.27;3.53;;;21.20;99.90;;;;;;5071421;27;20203;-63
2022/08/03 07:13:50;;;;;;;7.50;3.42;;;;;;;;;;5084683;27;20593;-65
2022/08/03 07:16:17;;;;;;;6.03;3.22;;;21.30;99.90;;;;;;5100245;27;20237;-64
2022/08/03 07:18:44;;;;;;;7.07;3.10;;;21.30;99.90;;;;;;5072546;27;20222;-64
2022/08/03 07:21:11;;;;;;;5.28;2.90;;;21.40;99.90;;;;;;5086155;27;20207;-64
2022/08/03 07:23:38;;;;;;;5.82;3.08;;;21.30;99.90;;;;;;5087334;27;20715;-64
2022/08/03 07:26:05;;;;;;;5.60;2.95;;;21.40;99.90;;;;;;5069300;27;20222;-64
2022/08/03 07:28:33;;;;;;;6.30;2.65;;;21.40;99.90;;;;;;5083440;27;20209;-64
2022/08/03 07:31:00;;;;;;;5.68;2.90;;;21.50;99.90;;;;;;5087223;27;20199;-63
2022/08/03 07:33:26;;;;;;;6.18;2.45;;;21.50;1.00;;;;;;5074175;27;20269;-64
2022/08/03 07:35:54;;;;;;;5.32;2.90;;;;;;;;;;5077243;27;20231;-64
2022/08/03 07:38:21;;;;;;;7.82;3.13;;;21.60;1.00;;;;;;5089098;27;20559;-64
2022/08/03 07:40:48;;;;;;;6.05;2.63;;;21.50;1.00;;;;;;5080162;27;20691;-64
2022/08/03 07:43:16;;;;;;;8.73;2.78;;;21.60;1.00;;;;;;5071634;27;20213;-64
2022/08/03 07:45:44;;;;;;;8.82;2.80;;;21.50;1.00;;;;;;5096972;27;20203;-64
2022/08/03 07:48:11;;;;;;;6.60;2.95;;;21.80;1.00;;;;;;5049511;27;21404;-64
2022/08/03 07:50:38;;;;;;;3.85;2.45;;;21.60;1.00;;;;;;5087844;27;20191;-64
2022/08/03 07:53:05;;;;;;;5.18;2.70;;;21.80;1.00;;;;;;5057028;27;20195;-64
2022/08/03 07:55:31;;;;;;;9.27;2.70;;;21.90;1.00;;;;;;5084930;28;20215;-64
2022/08/03 07:58:03;;;;;;;5.05;2.78;;;21.80;1.00;;;;;;5075161;28;20195;-64
2022/08/03 08:00:30;;;;;;;5.30;3.00;;;21.80;1.00;;;;;;5078376;27;20210;-63
2022/08/03 08:02:58;;;;;;;8.48;3.20;;;21.90;1.00;;;;;;5072660;28;20224;-64
2022/08/03 08:05:25;;;;;;;6.22;3.10;;;21.90;1.00;;;;;;5056202;27;20230;-64
2022/08/03 08:07:52;;;;;;;17.88;3.25;;;21.90;1.00;;;;;;5071940;28;20607;-64
2022/08/03 08:10:19;;;;;;;6.70;2.85;;;21.90;1.00;;;;;;5071469;27;20200;-64
2022/08/03 08:12:46;;;;;;;6.55;3.38;;;22.20;1.00;;;;;;5066770;28;20215;-64
2022/08/03 08:15:13;;;;;;;6.47;3.20;;;22.10;1.00;;;;;;5077391;28;20230;-64
2022/08/03 08:17:45;;;;;;;7.85;3.25;;;22.10;1.00;;;;;;5068185;27;20218;-64
2022/08/03 08:20:17;;;;;;;7.30;2.92;;;22.10;1.00;;;;;;5059937;27;20218;-63
2022/08/03 08:22:44;;;;;;;7.63;3.40;;;22.10;1.00;;;;;;5076616;28;20580;-64
2022/08/03 08:25:10;;;;;;;8.18;3.42;;;22.30;1.00;;;;;;5073892;28;20199;-64
2022/08/03 08:27:42;;;;;;;10.48;3.42;;;22.30;1.00;;;;;;5074308;27;20200;-64
2022/08/03 08:30:10;;;;;;;7.22;3.50;;;22.30;1.00;;;;;;5067919;28;20207;-63
2022/08/03 08:32:37;;;;;;;6.93;3.53;;;22.40;1.00;;;;;;5086196;27;20230;-64
2022/08/03 08:35:04;;;;;;;4.43;3.40;;;22.40;1.00;;;;;;5041274;28;20231;-64
2022/08/03 08:37:32;;;;;;;11.82;3.38;;;22.50;1.00;;;;;;5086843;28;20223;-64
2022/08/03 08:39:59;;;;;;;10.45;3.05;;;22.50;1.00;;;;;;5067837;28;21121;-64
2022/08/03 08:42:26;;;;;;;5.45;3.38;;;22.50;1.00;;;;;;5072810;28;20224;-64
2022/08/03 08:44:54;;;;;;;7.22;2.88;;;22.40;1.00;;;;;;5073304;27;20297;-63
2022/08/03 08:47:25;;;;;;;5.43;3.55;;;22.70;1.00;;;;;;5061130;27;20887;-64
2022/08/03 08:49:53;;;;;;;6.53;3.13;;;22.50;1.00;;;;;;5083789;28;20227;-64
2022/08/03 08:52:24;;;;;;;14.23;3.13;;;22.50;1.00;;;;;;5061856;27;20223;-64
2022/08/03 08:54:55;;;;;;;5.43;2.60;;;22.40;1.00;;;;;;5049466;27;20208;-64
2022/08/03 08:57:26;;;;;;;9.00;2.70;;;22.60;1.00;;;;;;5073431;27;20792;-64
2022/08/03 08:59:55;;;;;;;3.90;2.72;;;22.60;1.00;;;;;;5053115;27;20223;-64
2022/08/03 09:02:22;;;;;;;5.70;2.88;;;22.70;1.00;;;;;;5033337;27;20214;-64
2022/08/03 09:04:50;;;;;;;3.58;2.58;;;22.80;1.00;;;;;;5061191;28;20219;-64
2022/08/03 09:07:17;;;;;;;3.58;2.75;;;22.60;1.00;;;;;;5038895;27;20223;-64
2022/08/03 09:09:44;;;;;;;9.63;2.60;;;22.80;1.00;;;;;;5059555;28;20230;-64
2022/08/03 09:12:13;;;;;;;8.65;2.38;;;22.80;1.00;;;;;;5055585;28;20195;-64
2022/08/03 09:14:40;;;;;;;8.52;2.83;;;23.00;1.00;;;;;;5066840;27;20230;-64
2022/08/03 09:17:08;;;;;;;5.22;2.30;;;23.00;1.00;;;;;;5041086;28;20239;-64
2022/08/03 09:19:35;;;;;;;4.40;2.30;;;23.00;1.00;;;;;;5080384;28;20224;-64
2022/08/03 09:22:11;;;;;;;6.55;2.40;;;23.00;1.00;;;;;;5038949;27;20834;-65
2022/08/03 09:24:42;;;;;;;7.13;2.20;;;23.30;99.90;;;;;;5079260;28;20223;-64
2022/08/03 09:27:13;;;;;;;3.70;2.45;;;23.30;99.90;;;;;;5055068;27;20222;-62
2022/08/03 09:29:40;;;;;;;4.57;2.25;;;20.70;99.90;;;;;;5066274;27;20225;-64
2022/08/03 09:32:08;;;;;;;7.28;2.53;;;23.50;99.90;;;;;;5053841;28;20204;-64
2022/08/03 09:34:36;;;;;;;4.28;1.95;;;23.50;99.90;;;;;;5073835;27;20219;-64
2022/08/03 09:37:12;;;;;;;2.83;1.88;;;23.60;99.90;;;;;;5074287;27;20698;-64
2022/08/03 09:39:39;;;;;;;7.53;2.10;;;23.60;99.90;;;;;;5065426;27;20195;-64
2022/08/03 09:42:07;;;;;;;5.68;2.33;;;23.90;99.90;;;;;;5045392;27;20210;-64
2022/08/03 09:44:37;;;;;;;5.57;2.45;;;22.90;99.90;;;;;;5051216;27;20717;-63
2022/08/03 09:47:04;;;;;;;6.90;2.42;;;24.00;99.90;;;;;;5047896;28;20215;-64
2022/08/03 09:49:32;;;;;;;6.50;2.20;;;23.90;99.90;;;;;;5051761;27;20279;-64
2022/08/03 09:52:03;;;;;;;3.80;2.13;;;22.10;99.90;;;;;;5069695;27;20230;-63
2022/08/03 09:54:32;;;;;;;7.53;2.67;;;24.40;99.90;;;;;;5030661;27;20225;-64
2022/08/03 09:57:00;;;;;;;6.57;2.50;;;24.30;99.90;;;;;;5068862;27;20245;-63
2022/08/03 09:59:28;;;;;;;6.57;2.60;;;24.40;99.90;;;;;;5067138;28;20223;-63
2022/08/03 10:01:58;;;;;;;6.50;2.80;;;24.60;99.90;;;;;;5050937;28;20248;-63
2022/08/03 10:04:26;;;;;;;9.55;2.85;;;24.70;99.90;;;;;;5076837;27;20204;-63
2022/08/03 10:07:04;;;;;;;9.02;2.42;;;24.70;99.90;;;;;;5058368;28;20229;-64
2022/08/03 10:09:31;;;;;;;3.65;1.92;;;24.80;99.90;;;;;;5039701;28;20219;-63
2022/08/03 10:12:06;;;;;;;3.95;1.73;;;24.90;99.90;;;;;;5060214;28;20207;-63
2022/08/03 10:14:34;;;;;;;4.78;2.17;;;24.90;99.90;;;;;;5071840;28;20222;-63
2022/08/03 10:17:03;;;;;;;8.75;2.45;;;25.00;99.90;;;;;;5049642;27;20719;-63
2022/08/03 10:19:29;;;;;;;8.32;2.22;;;25.10;99.90;;;;;;5065075;28;20223;-63
2022/08/03 10:22:02;;;;;;;4.43;1.95;;;25.30;99.90;;;;;;5067634;27;20199;-63
2022/08/03 10:24:30;;;;;;;6.00;1.95;;;25.20;99.90;;;;;;5042681;28;20246;-64
2022/08/03 10:27:02;;;;;;;6.80;2.15;;;25.40;99.90;;;;;;5063914;28;20313;-63
2022/08/03 10:29:31;;;;;;;7.53;2.10;;;25.40;99.90;;;;;;5073325;28;20796;-63
2022/08/03 10:32:00;;;;;;;6.15;1.77;;;25.40;99.90;;;;;;5041396;28;20229;-63
2022/08/03 10:34:34;;;;;;;5.10;2.05;;;25.40;99.90;;;;;;5061705;28;20230;-63
2022/08/03 10:37:06;;;;;;;4.60;1.88;;;24.30;99.90;;;;;;5056344;28;20252;-63
2022/08/03 10:39:34;;;;;;;6.47;2.20;;;25.50;99.90;;;;;;5034082;28;20237;-64
2022/08/03 10:42:03;;;;;;;12.02;1.90;;;25.60;99.90;;;;;;5082265;28;20627;-63
2022/08/03 10:44:37;;;;;;;6.18;1.88;;;25.70;99.90;;;;;;5074400;28;21375;-63
2022/08/03 10:47:04;;;;;;;5.00;2.10;;;25.70;99.90;;;;;;5066792;28;20763;-63
2022/08/03 10:49:33;;;;;;;7.13;2.00;;;25.80;99.90;;;;;;5049916;28;20215;-63
2022/08/03 10:52:00;;;;;;;8.73;1.95;;;;;;;;;;5056859;28;20704;-63
2022/08/03 10:57:46;;;;;;;4.55;1.98;;;26.20;99.90;;;;;;5048573;28;20257;-64
2022/08/03 11:00:14;;;;;;;4.82;2.20;;;26.20;99.90;;;;;;5079877;28;20203;-62
2022/08/03 11:03:05;;;;;;;4.15;1.90;;;26.20;99.90;;;;;;5053920;28;20210;-64
2022/08/03 11:05:35;;;;;;;7.35;1.80;;;26.30;99.90;;;;;;5049173;28;21072;-63
2022/08/03 11:08:20;;;;;;;9.57;2.35;;;26.20;99.90;;;;;;5074579;28;20632;-63
2022/08/03 11:10:48;;;;;;;15.40;2.55;;;27.20;99.90;;;;;;5040691;28;20230;-64
2022/08/03 11:13:16;;;;;;;6.18;1.85;;;26.00;99.90;;;;;;5058193;28;20227;-64
2022/08/03 11:15:45;;;;;;;6.35;2.83;;;26.40;99.90;;;;;;5080556;28;20823;-64
2022/08/03 11:18:13;;;;;;;5.20;2.30;;;26.40;99.90;;;;;;5040122;28;20319;-64
2022/08/03 11:20:49;;;;;;;10.82;2.60;;;26.40;99.90;;;;;;5060986;28;20200;-64
2022/08/03 11:23:19;;;;;;;6.40;2.30;;;26.70;99.90;;;;;;5077631;27;20225;-64
2022/08/03 11:26:08;;;;;;;11.55;2.30;;;26.70;99.90;;;;;;5046954;27;20208;-64
2022/08/03 11:28:35;;;;;;;11.40;3.45;;;26.80;99.90;;;;;;5081123;27;20220;-64
2022/08/03 11:31:34;;;;;;;7.60;2.33;;;26.70;99.90;;;;;;5074731;27;20218;-63
2022/08/03 11:34:04;;;;;;;5.07;2.22;;;26.80;99.90;;;;;;5035223;27;20223;-64
2022/08/03 11:37:13;;;;;;;12.80;3.75;;;26.80;99.90;;;;;;5065096;27;20246;-65
2022/08/03 11:39:42;;;;;;;10.88;3.63;;;27.00;99.90;;;;;;5065080;28;22563;-63
2022/08/03 11:42:45;;;;;;;8.30;2.83;;;27.10;99.90;;;;;;5035163;28;21099;-63
2022/08/03 11:45:13;;;;;;;9.55;2.70;;;27.10;99.90;;;;;;5065563;28;20225;-63
2022/08/03 11:47:41;;;;;;;4.53;2.10;;;27.10;99.90;;;;;;5067352;28;20219;-63
2022/08/03 11:50:10;;;;;;;5.32;1.70;;;27.00;99.90;;;;;;5052162;28;20364;-64
2022/08/03 11:52:41;;;;;;;6.25;2.20;;;26.70;99.90;;;;;;5075685;28;20228;-64
2022/08/03 11:55:19;;;;;;;6.45;2.03;;;27.20;99.90;;;;;;5082476;28;20223;-64
2022/08/03 11:57:46;;;;;;;7.05;2.05;;;27.20;99.90;;;;;;5056564;27;20295;-64
2022/08/03 12:00:27;;;;;;;7.00;2.15;;;27.20;99.90;;;;;;5062851;27;20228;-65
2022/08/03 12:02:58;;;;;;;5.80;2.42;;;;;;;;;;5058094;27;20227;-65
2022/08/03 12:05:40;;;;;;;8.25;2.10;;;27.30;99.90;;;;;;5048850;28;20206;-65
2022/08/03 12:08:10;;;;;;;5.70;2.03;;;27.40;99.90;;;;;;5057222;27;20219;-64
2022/08/03 12:10:37;;;;;;;6.13;1.77;;;27.40;99.90;;;;;;5078554;27;20203;-64
2022/08/03 12:13:07;;;;;;;8.55;2.35;;;27.20;99.90;;;;;;5056493;28;20212;-64
2022/08/03 12:15:35;;;;;;;5.95;2.13;;;27.10;99.90;;;;;;5077211;28;20790;-64
2022/08/03 12:18:03;;;;;;;7.43;2.33;;;27.00;99.90;;;;;;5082644;28;20228;-64
2022/08/03 12:20:32;;;;;;;9.95;1.90;;;26.80;99.90;;;;;;5054786;28;21024;-64
2022/08/03 12:23:04;;;;;;;3.55;1.75;;;27.00;99.90;;;;;;5053047;28;20227;-64
2022/08/03 12:25:34;;;;;;;7.97;2.00;;;27.00;99.90;;;;;;5081682;28;20244;-65
2022/08/03 12:28:17;;;;;;;4.78;2.00;;;27.00;99.90;;;;;;5039536;28;20833;-65
2022/08/03 12:30:46;;;;;;;7.38;2.03;;;27.20;99.90;;;;;;5066481;27;20311;-65
2022/08/03 12:33:19;;;;;;;7.05;2.88;;;27.20;99.90;;;;;;5077735;28;20222;-64
2022/08/03 12:35:48;;;;;;;7.82;1.88;;;27.10;99.90;;;;;;5048286;27;20238;-64
2022/08/03 12:38:20;;;;;;;8.52;2.42;;;27.40;1.00;;;;;;5063709;28;20726;-64
2022/08/03 12:40:57;;;;;;;4.97;1.90;;;27.60;99.90;;;;;;5061762;28;21114;-64
2022/08/03 12:43:24;;;;;;;5.85;1.92;;;;;;;;;;5056516;28;20210;-64
2022/08/03 12:45:51;;;;;;;7.30;2.40;;;27.70;99.90;;;;;;5062367;28;20601;-63
2022/08/03 12:48:18;;;;;;;5.15;2.00;;;27.60;99.90;;;;;;5076731;27;20208;-63
2022/08/03 12:50:45;;;;;;;7.47;2.30;;;27.60;99.90;;;;;;5045524;27;20631;-65
2022/08/03 12:53:12;;;;;;;11.93;2.13;;;;;;;;;;5061182;23;20727;-64
2022/08/03 12:55:39;;;;;;;11.52;2.63;;;27.20;99.90;;;;;;5009758;28;20224;-64
2022/08/03 12:58:09;;;;;;;8.60;1.83;;;27.50;99.90;;;;;;4995786;28;20228;-64
2022/08/03 13:00:36;;;;;;;10.23;2.60;;;27.50;99.90;;;;;;5038794;28;20240;-64
2022/08/03 13:03:05;;;;;;;10.25;1.90;;;27.50;99.90;;;;;;5010376;28;21007;-64
2022/08/03 13:05:43;;;;;;;10.18;1.63;;;27.60;99.90;;;;;;5023040;28;20233;-64
2022/08/03 13:08:18;;;;;;;7.15;1.35;;;27.60;99.90;;;;;;5020617;28;20247;-65
2022/08/03 13:10:46;;;;;;;7.65;2.25;;;27.80;99.90;;;;;;5088332;22;20236;-65
2022/08/03 13:13:15;;;;;;;10.57;2.05;;;27.80;99.90;;;;;;5045821;28;20329;-65
2022/08/03 13:15:42;;;;;;;9.35;2.28;;;27.70;99.90;;;;;;5037650;28;20231;-64